createdAt,value
2022-11-29T00:01:39.425Z,19.63
2022-11-29T00:04:06.479Z,16.87
2022-11-29T00:06:34.801Z,18.17
2022-11-29T00:09:07.031Z,21.07
2022-11-29T00:11:57.137Z,19.07
2022-11-29T00:14:26.588Z,21.70
2022-11-29T00:16:59.307Z,15.23
2022-11-29T00:19:26.297Z,16.90
2022-11-29T00:21:53.169Z,18.33
2022-11-29T00:24:20.143Z,18.73
2022-11-29T00:26:47.966Z,18.23
2022-11-29T00:29:15.028Z,18.83
2022-11-29T00:31:42.662Z,16.60
2022-11-29T00:34:11.203Z,17.07
2022-11-29T00:36:38.521Z,16.70
2022-11-29T00:39:06.790Z,21.53
2022-11-29T00:41:35.533Z,14.00
2022-11-29T00:44:02.307Z,15.63
2022-11-29T00:46:29.169Z,17.47
2022-11-29T00:49:00.204Z,19.20
2022-11-29T00:51:27.043Z,17.13
2022-11-29T00:53:53.950Z,17.37
2022-11-29T00:56:20.783Z,13.50
2022-11-29T00:58:49.255Z,15.50
2022-11-29T01:01:16.489Z,17.47
2022-11-29T01:03:43.597Z,15.53
2022-11-29T01:06:14.889Z,26.73
2022-11-29T01:08:42.444Z,113.93
2022-11-29T01:11:22.574Z,14.73
2022-11-29T01:13:57.568Z,16.37
2022-11-29T01:16:26.415Z,12.93
2022-11-29T01:18:53.370Z,17.97
2022-11-29T01:21:23.285Z,15.10
2022-11-29T01:23:52.768Z,15.83
2022-11-29T01:26:27.513Z,15.33
2022-11-29T01:28:56.766Z,13.83
2022-11-29T01:31:35.909Z,14.83
2022-11-29T01:34:05.980Z,12.47
2022-11-29T01:36:34.407Z,13.47
2022-11-29T01:39:04.100Z,14.07
2022-11-29T01:41:34.445Z,16.07
2022-11-29T01:44:26.996Z,22.60
2022-11-29T01:46:55.150Z,16.23
2022-11-29T01:49:39.070Z,18.53
2022-11-29T01:52:23.825Z,16.30
2022-11-29T01:54:58.071Z,17.70
2022-11-29T01:57:26.400Z,17.53
2022-11-29T02:00:02.467Z,29.00
2022-11-29T02:02:58.406Z,28.47
2022-11-29T02:05:26.275Z,51.63
2022-11-29T02:07:58.954Z,64.60
2022-11-29T02:11:14.077Z,35.63
2022-11-29T02:14:23.680Z,47.37
2022-11-29T02:17:29.575Z,35.40
2022-11-29T02:20:39.058Z,33.20
2022-11-29T02:23:50.443Z,33.50
2022-11-29T02:26:43.306Z,40.37
2022-11-29T02:29:38.612Z,24.10
2022-11-29T02:32:45.377Z,20.93
2022-11-29T02:36:12.021Z,25.77
2022-11-29T02:39:25.348Z,26.27
2022-11-29T02:42:52.565Z,28.37
2022-11-29T02:46:14.720Z,15.90
2022-11-29T02:48:53.094Z,17.07
2022-11-29T02:51:41.405Z,28.53
2022-11-29T02:54:27.518Z,18.37
2022-11-29T02:57:02.038Z,34.07
2022-11-29T02:59:57.215Z,18.97
2022-11-29T03:02:41.940Z,14.03
2022-11-29T03:05:41.426Z,10.80
2022-11-29T03:08:37.136Z,15.03
2022-11-29T03:11:27.681Z,12.57
2022-11-29T03:14:22.691Z,17.93
2022-11-29T03:18:01.103Z,18.47
2022-11-29T03:20:58.364Z,12.97
2022-11-29T03:23:45.348Z,12.23
2022-11-29T03:26:29.620Z,18.40
2022-11-29T03:29:07.818Z,43.70
2022-11-29T03:31:39.085Z,17.93
2022-11-29T03:34:30.561Z,19.47
2022-11-29T03:37:30.117Z,16.67
2022-11-29T03:40:07.402Z,17.30
2022-11-29T03:42:59.459Z,22.53
2022-11-29T03:45:48.545Z,14.67
2022-11-29T03:48:24.449Z,24.70
2022-11-29T03:51:00.215Z,29.60
2022-11-29T03:53:45.067Z,25.60
2022-11-29T03:56:34.600Z,41.23
2022-11-29T03:59:46.030Z,40.17
2022-11-29T04:03:09.401Z,32.80
2022-11-29T04:06:06.956Z,35.07
2022-11-29T04:09:13.580Z,25.60
2022-11-29T04:12:14.199Z,22.60
2022-11-29T04:15:20.834Z,27.10
2022-11-29T04:17:53.523Z,23.90
2022-11-29T04:21:06.841Z,24.60
2022-11-29T04:24:15.833Z,18.47
2022-11-29T04:27:37.524Z,31.90
2022-11-29T04:30:07.150Z,32.03
2022-11-29T04:32:59.367Z,28.70
2022-11-29T04:35:55.321Z,21.80
2022-11-29T04:38:49.015Z,16.40
2022-11-29T04:41:40.438Z,18.83
2022-11-29T04:44:53.854Z,20.83
2022-11-29T04:47:47.086Z,33.30
2022-11-29T04:50:46.939Z,14.43
2022-11-29T04:53:30.548Z,37.03
2022-11-29T04:56:19.241Z,36.33
2022-11-29T04:59:16.367Z,27.50
2022-11-29T05:02:26.304Z,35.97
2022-11-29T05:05:14.387Z,17.00
2022-11-29T05:08:26.091Z,16.33
2022-11-29T05:11:25.050Z,18.10
2022-11-29T05:14:34.263Z,18.77
2022-11-29T05:17:33.510Z,23.03
2022-11-29T05:20:12.993Z,17.70
2022-11-29T05:23:18.885Z,14.33
2022-11-29T05:26:19.967Z,13.43
2022-11-29T05:29:09.918Z,18.37
2022-11-29T05:31:51.678Z,14.67
2022-11-29T05:34:35.149Z,21.77
2022-11-29T05:37:27.649Z,22.57
2022-11-29T05:40:39.116Z,24.87
2022-11-29T05:43:22.217Z,18.20
2022-11-29T05:46:27.431Z,21.13
2022-11-29T05:50:12.445Z,26.00
2022-11-29T05:52:55.301Z,22.67
2022-11-29T05:55:54.680Z,42.03
2022-11-29T05:59:02.640Z,31.03
2022-11-29T06:01:57.685Z,42.67
2022-11-29T06:05:29.884Z,21.47
2022-11-29T06:08:06.176Z,26.67
2022-11-29T06:10:40.127Z,27.03
2022-11-29T06:13:21.991Z,35.37
2022-11-29T06:16:06.331Z,25.23
2022-11-29T06:18:54.584Z,32.00
2022-11-29T06:21:52.774Z,33.53
2022-11-29T06:24:50.626Z,20.60
2022-11-29T06:27:50.684Z,41.43
2022-11-29T06:30:26.870Z,43.73
2022-11-29T06:33:04.974Z,58.20
2022-11-29T06:36:07.123Z,32.47
2022-11-29T06:38:34.273Z,33.47
2022-11-29T06:41:02.541Z,33.17
2022-11-29T06:43:30.660Z,22.67
2022-11-29T06:46:22.688Z,25.43
2022-11-29T06:49:09.639Z,20.83
2022-11-29T06:52:11.753Z,26.13
2022-11-29T06:55:24.194Z,24.50
2022-11-29T06:58:14.347Z,23.80
2022-11-29T07:01:04.996Z,18.40
2022-11-29T07:03:53.650Z,16.40
2022-11-29T07:06:28.598Z,26.57
2022-11-29T07:09:19.052Z,20.43
2022-11-29T07:11:47.577Z,24.23
2022-11-29T07:14:15.400Z,15.10
2022-11-29T07:17:01.702Z,24.63
2022-11-29T07:19:52.740Z,26.70
2022-11-29T07:23:09.273Z,22.93
2022-11-29T07:26:04.675Z,25.50
2022-11-29T07:29:00.926Z,27.67
2022-11-29T07:32:03.941Z,17.43
2022-11-29T07:35:19.418Z,30.50
2022-11-29T07:38:17.566Z,35.87
2022-11-29T07:41:20.915Z,15.50
2022-11-29T07:43:53.417Z,30.07
2022-11-29T07:46:21.222Z,34.30
2022-11-29T07:48:48.033Z,26.27
2022-11-29T07:51:15.313Z,18.87
2022-11-29T07:53:44.421Z,14.43
2022-11-29T07:56:16.662Z,24.50
2022-11-29T07:58:43.666Z,23.13
2022-11-29T08:01:10.709Z,27.37
2022-11-29T08:03:37.884Z,24.57
2022-11-29T08:06:05.637Z,18.93
2022-11-29T08:08:32.529Z,17.87
2022-11-29T08:10:59.326Z,21.17
2022-11-29T08:13:26.268Z,23.03
2022-11-29T08:15:53.069Z,23.87
2022-11-29T08:18:20.009Z,27.13
2022-11-29T08:20:46.872Z,22.27
2022-11-29T08:23:14.575Z,25.10
2022-11-29T08:25:41.510Z,28.90
2022-11-29T08:28:09.294Z,19.23
2022-11-29T08:30:36.346Z,24.37
2022-11-29T08:33:03.518Z,29.10
2022-11-29T08:35:30.946Z,31.77
2022-11-29T08:37:57.880Z,25.80
2022-11-29T08:40:24.861Z,22.37
2022-11-29T08:42:51.681Z,36.90
2022-11-29T08:45:18.648Z,18.53
2022-11-29T08:47:45.489Z,13.67
2022-11-29T08:50:16.810Z,26.20
2022-11-29T08:53:05.774Z,26.67
2022-11-29T08:55:40.473Z,23.23
2022-11-29T08:58:13.300Z,28.50
2022-11-29T09:00:43.479Z,20.20
2022-11-29T09:03:28.662Z,20.97
2022-11-29T09:05:55.934Z,24.47
2022-11-29T09:08:22.870Z,32.67
2022-11-29T09:10:50.311Z,21.70
2022-11-29T09:13:18.091Z,16.50
2022-11-29T09:15:45.074Z,25.30
2022-11-29T09:18:12.005Z,26.77
2022-11-29T09:20:43.933Z,36.37
2022-11-29T09:23:12.859Z,37.57
2022-11-29T09:25:39.766Z,26.27
2022-11-29T09:28:07.447Z,42.33
2022-11-29T09:30:36.479Z,46.53
2022-11-29T09:33:04.776Z,31.37
2022-11-29T09:35:32.279Z,39.53
2022-11-29T09:37:59.219Z,22.63
2022-11-29T09:44:31.095Z,28.50
2022-11-29T09:47:08.619Z,31.57
2022-11-29T09:50:08.938Z,26.53
2022-11-29T09:52:52.590Z,25.97
2022-11-29T09:55:38.634Z,29.03
2022-11-29T09:58:15.335Z,24.57
2022-11-29T10:00:54.147Z,31.10
2022-11-29T10:03:44.659Z,33.17
2022-11-29T10:06:32.806Z,30.50
2022-11-29T10:09:16.736Z,21.87
2022-11-29T10:12:15.810Z,34.43
2022-11-29T10:14:55.916Z,30.10
2022-11-29T10:17:31.865Z,24.97
2022-11-29T10:20:25.534Z,27.03
2022-11-29T10:23:03.293Z,23.33
2022-11-29T10:25:42.034Z,27.87
2022-11-29T10:28:17.036Z,27.93
2022-11-29T10:30:44.870Z,25.23
2022-11-29T10:33:21.090Z,20.13
2022-11-29T10:35:54.222Z,27.50
2022-11-29T10:38:30.868Z,22.17
2022-11-29T10:41:09.205Z,20.97
2022-11-29T10:43:40.420Z,22.37
2022-11-29T10:46:32.227Z,22.17
2022-11-29T10:49:02.858Z,28.23
2022-11-29T10:51:31.744Z,23.27
2022-11-29T10:54:31.377Z,25.90
2022-11-29T10:57:00.860Z,18.53
2022-11-29T10:59:32.971Z,33.67
2022-11-29T11:02:01.821Z,23.10
2022-11-29T11:04:45.420Z,20.63
2022-11-29T11:07:38.233Z,17.73
2022-11-29T11:10:30.729Z,18.53
2022-11-29T11:13:24.531Z,16.80
2022-11-29T11:16:20.272Z,17.63
2022-11-29T11:18:48.328Z,20.70
2022-11-29T11:21:20.729Z,19.07
2022-11-29T11:24:02.960Z,26.27
2022-11-29T11:26:44.675Z,24.40
2022-11-29T11:29:24.677Z,23.23
2022-11-29T11:31:57.635Z,29.40
2022-11-29T11:34:36.545Z,22.97
2022-11-29T11:37:15.300Z,28.20
2022-11-29T11:39:43.966Z,24.80
2022-11-29T11:42:36.788Z,23.27
2022-11-29T11:45:27.311Z,22.37
2022-11-29T11:47:59.676Z,22.43
2022-11-29T11:50:53.771Z,22.00
2022-11-29T11:53:36.432Z,21.33
2022-11-29T11:56:10.486Z,19.53
2022-11-29T11:58:51.476Z,23.60
2022-11-29T12:01:30.469Z,19.40
2022-11-29T12:04:12.993Z,20.43
2022-11-29T12:06:58.443Z,22.50
2022-11-29T12:09:46.103Z,23.47
2022-11-29T12:12:29.766Z,39.57
2022-11-29T12:15:07.015Z,28.43
2022-11-29T12:18:06.340Z,25.47
2022-11-29T12:20:42.328Z,27.70
2022-11-29T12:23:28.781Z,19.77
2022-11-29T12:26:19.272Z,19.93
2022-11-29T12:29:00.087Z,17.23
2022-11-29T12:31:56.977Z,19.40
2022-11-29T12:35:19.040Z,15.67
2022-11-29T12:38:07.706Z,19.93
2022-11-29T12:41:22.903Z,19.07
2022-11-29T12:44:16.520Z,19.00
2022-11-29T12:47:34.208Z,20.10
2022-11-29T12:50:12.987Z,20.57
2022-11-29T12:52:56.206Z,17.87
2022-11-29T12:55:58.938Z,21.77
2022-11-29T12:58:33.093Z,21.87
2022-11-29T13:01:21.721Z,24.30
2022-11-29T13:04:04.415Z,23.63
2022-11-29T13:07:01.356Z,22.77
2022-11-29T13:09:53.844Z,29.53
2022-11-29T13:12:42.634Z,19.80
2022-11-29T13:15:19.971Z,25.17
2022-11-29T13:18:14.232Z,24.90
2022-11-29T13:21:01.394Z,21.67
2022-11-29T13:24:14.730Z,22.20
2022-11-29T13:26:43.760Z,23.23
2022-11-29T13:29:18.453Z,21.90
2022-11-29T13:31:47.328Z,20.13
2022-11-29T13:34:45.446Z,24.27
2022-11-29T13:37:30.190Z,22.97
2022-11-29T13:40:44.786Z,21.73
2022-11-29T13:43:25.511Z,22.13
2022-11-29T13:46:15.661Z,22.27
2022-11-29T13:48:53.472Z,22.37
2022-11-29T13:51:38.532Z,22.00
2022-11-29T13:54:30.812Z,21.13
2022-11-29T13:57:09.699Z,20.03
2022-11-29T13:59:45.727Z,20.00
2022-11-29T14:02:31.238Z,18.57
2022-11-29T14:04:58.585Z,20.43
2022-11-29T14:07:25.589Z,19.77
2022-11-29T14:10:03.254Z,25.67
2022-11-29T14:12:56.134Z,20.40
2022-11-29T14:15:31.985Z,19.43
2022-11-29T14:18:03.985Z,19.60
2022-11-29T14:20:32.378Z,22.50
2022-11-29T14:23:05.023Z,21.13
2022-11-29T14:28:39.234Z,21.97
2022-11-29T14:31:09.160Z,24.07
2022-11-29T14:34:16.319Z,21.63
2022-11-29T14:37:18.329Z,23.57
2022-11-29T14:39:49.612Z,21.77
2022-11-29T14:42:21.437Z,20.57
2022-11-29T14:45:29.480Z,25.20
2022-11-29T14:47:57.374Z,21.63
2022-11-29T14:50:39.679Z,21.83
2022-11-29T14:53:33.037Z,22.07
2022-11-29T14:56:30.912Z,21.47
2022-11-29T14:59:51.757Z,20.47
2022-11-29T15:02:52.125Z,25.00
2022-11-29T15:05:33.036Z,24.03
2022-11-29T15:08:44.127Z,23.13
2022-11-29T15:11:41.217Z,22.83
2022-11-29T15:14:42.720Z,25.53
2022-11-29T15:17:56.179Z,21.87
2022-11-29T15:21:01.360Z,22.43
2022-11-29T15:23:28.320Z,25.83
2022-11-29T15:26:00.853Z,28.87
2022-11-29T15:28:31.142Z,24.27
2022-11-29T15:31:09.628Z,29.93
2022-11-29T15:33:44.121Z,28.40
2022-11-29T15:36:20.461Z,26.37
2022-11-29T15:38:57.372Z,24.53
2022-11-29T15:41:35.480Z,23.50
2022-11-29T15:44:06.637Z,24.60
2022-11-29T15:46:35.659Z,28.30
2022-11-29T15:49:28.052Z,26.90
2022-11-29T15:52:08.284Z,21.03
2022-11-29T15:54:43.277Z,25.73
2022-11-29T15:57:26.332Z,24.87
2022-11-29T16:00:02.047Z,23.77
2022-11-29T16:02:41.100Z,25.67
2022-11-29T16:05:24.411Z,25.03
2022-11-29T16:07:57.424Z,24.50
2022-11-29T16:10:51.414Z,24.10
2022-11-29T16:13:38.713Z,24.33
2022-11-29T16:16:16.623Z,20.83
2022-11-29T16:18:46.613Z,22.20
2022-11-29T16:21:29.737Z,23.97
2022-11-29T16:23:58.356Z,23.50
2022-11-29T16:26:40.389Z,26.30
2022-11-29T16:29:26.196Z,25.77
2022-11-29T16:31:54.339Z,29.13
2022-11-29T16:34:31.179Z,23.27
2022-11-29T16:37:19.210Z,25.37
2022-11-29T16:39:50.926Z,24.90
2022-11-29T16:42:30.199Z,26.00
2022-11-29T16:45:37.061Z,24.50
2022-11-29T16:48:25.433Z,28.80
2022-11-29T16:51:24.887Z,28.27
2022-11-29T16:53:54.201Z,28.17
2022-11-29T16:56:28.165Z,26.00
2022-11-29T16:59:17.129Z,24.43
2022-11-29T17:01:49.639Z,28.27
2022-11-29T17:04:23.641Z,26.03
2022-11-29T17:06:53.304Z,26.13
2022-11-29T17:09:28.727Z,26.43
2022-11-29T17:11:59.584Z,27.10
2022-11-29T17:14:27.007Z,25.63
2022-11-29T17:16:53.949Z,28.57
2022-11-29T17:19:23.535Z,26.73
2022-11-29T17:21:52.896Z,25.30
2022-11-29T17:24:23.118Z,32.53
2022-11-29T17:26:50.797Z,30.77
2022-11-29T17:29:18.679Z,33.43
2022-11-29T17:31:47.221Z,30.30
2022-11-29T17:34:14.178Z,27.00
2022-11-29T17:36:41.044Z,24.20
2022-11-29T17:39:08.400Z,26.03
2022-11-29T17:41:35.376Z,26.77
2022-11-29T17:44:02.516Z,28.07
2022-11-29T17:46:36.458Z,25.60
2022-11-29T17:49:07.808Z,25.60
2022-11-29T17:51:55.447Z,26.60
2022-11-29T17:54:23.108Z,22.27
2022-11-29T17:56:50.792Z,27.53
2022-11-29T17:59:17.967Z,27.97
2022-11-29T18:01:47.059Z,26.27
2022-11-29T18:04:14.397Z,26.07
2022-11-29T18:06:41.496Z,24.23
2022-11-29T18:09:11.108Z,22.43
2022-11-29T18:11:48.476Z,25.77
2022-11-29T18:14:23.930Z,26.50
2022-11-29T18:16:51.934Z,25.90
2022-11-29T18:19:22.082Z,28.27
2022-11-29T18:21:50.939Z,26.73
2022-11-29T18:24:18.767Z,26.13
2022-11-29T18:26:46.016Z,28.67
2022-11-29T18:29:13.106Z,23.57
2022-11-29T18:31:43.606Z,26.47
2022-11-29T18:34:14.079Z,32.50
2022-11-29T18:36:45.705Z,26.73
2022-11-29T18:39:17.094Z,25.93
2022-11-29T18:41:47.431Z,29.43
2022-11-29T18:44:17.867Z,31.03
2022-11-29T18:46:46.124Z,31.93
2022-11-29T18:49:16.481Z,27.37
2022-11-29T18:51:45.503Z,30.63
2022-11-29T18:54:14.228Z,29.57
2022-11-29T18:56:42.456Z,28.10
2022-11-29T18:59:16.782Z,28.63
2022-11-29T19:01:47.666Z,29.20
2022-11-29T19:04:18.403Z,35.47
2022-11-29T19:06:45.571Z,28.80
2022-11-29T19:09:17.032Z,31.67
2022-11-29T19:11:44.015Z,32.93
2022-11-29T19:14:12.888Z,35.83
2022-11-29T19:16:45.293Z,33.47
2022-11-29T19:19:12.581Z,29.37
2022-11-29T19:21:40.282Z,28.80
2022-11-29T19:24:14.656Z,31.20
2022-11-29T19:26:46.190Z,36.57
2022-11-29T19:29:14.744Z,32.30
2022-11-29T19:31:42.654Z,35.87
2022-11-29T19:34:10.287Z,32.77
2022-11-29T19:36:43.146Z,30.57
2022-11-29T19:39:13.894Z,28.83
2022-11-29T19:41:44.246Z,32.37
2022-11-29T19:44:11.708Z,35.03
2022-11-29T19:46:48.806Z,38.07
2022-11-29T19:49:16.692Z,30.93
2022-11-29T19:51:43.935Z,32.40
2022-11-29T19:54:12.357Z,32.60
2022-11-29T19:56:39.692Z,35.73
2022-11-29T19:59:08.713Z,39.27
2022-11-29T20:01:41.800Z,35.60
2022-11-29T20:04:12.340Z,29.23
2022-11-29T20:06:39.787Z,36.67
2022-11-29T20:09:07.217Z,35.80
2022-11-29T20:11:34.140Z,32.47
2022-11-29T20:14:05.255Z,30.87
2022-11-29T20:16:34.230Z,36.07
2022-11-29T20:19:01.711Z,32.77
2022-11-29T20:21:32.701Z,36.10
2022-11-29T20:24:06.975Z,32.87
2022-11-29T20:26:37.949Z,34.33
2022-11-29T20:29:07.158Z,41.07
2022-11-29T20:31:36.032Z,35.87
2022-11-29T20:34:06.496Z,35.33
2022-11-29T20:37:40.197Z,42.77
2022-11-29T20:40:40.229Z,44.73
2022-11-29T20:43:16.913Z,37.17
2022-11-29T20:45:44.247Z,41.67
2022-11-29T20:48:21.884Z,41.57
2022-11-29T20:50:59.663Z,40.13
2022-11-29T20:53:40.078Z,39.90
2022-11-29T20:56:12.537Z,43.47
2022-11-29T20:58:39.850Z,41.37
2022-11-29T21:01:07.391Z,40.27
2022-11-29T21:03:34.755Z,42.03
2022-11-29T21:06:05.670Z,41.03
2022-11-29T21:08:33.833Z,44.30
2022-11-29T21:11:08.126Z,37.73
2022-11-29T21:13:35.673Z,43.97
2022-11-29T21:16:03.518Z,40.30
2022-11-29T21:18:32.414Z,43.77
2022-11-29T21:21:18.708Z,37.90
2022-11-29T21:24:24.368Z,35.80
2022-11-29T21:26:52.418Z,39.23
2022-11-29T21:29:22.553Z,42.90
2022-11-29T21:31:53.455Z,41.00
2022-11-29T21:34:21.876Z,41.67
2022-11-29T21:36:59.832Z,49.30
2022-11-29T21:39:33.987Z,45.53
2022-11-29T21:42:00.984Z,47.83
2022-11-29T21:44:27.892Z,42.70
2022-11-29T21:46:54.798Z,51.03
2022-11-29T21:49:21.775Z,43.27
2022-11-29T21:51:48.934Z,50.37
2022-11-29T21:54:15.745Z,48.53
2022-11-29T21:56:42.589Z,45.03
2022-11-29T21:59:09.337Z,44.17
2022-11-29T22:01:36.210Z,42.07
2022-11-29T22:04:04.124Z,50.87
2022-11-29T22:06:31.069Z,45.00
2022-11-29T22:08:58.041Z,46.47
2022-11-29T22:11:31.355Z,43.57
2022-11-29T22:14:19.753Z,37.47
2022-11-29T22:17:00.512Z,41.73
2022-11-29T22:19:31.365Z,44.37
2022-11-29T22:22:01.868Z,44.70
2022-11-29T22:24:32.193Z,42.37
2022-11-29T22:26:59.298Z,48.23
2022-11-29T22:29:26.406Z,40.13
2022-11-29T22:31:56.363Z,39.77
2022-11-29T22:34:27.081Z,37.53
2022-11-29T22:36:54.792Z,41.77
2022-11-29T22:39:23.879Z,41.20
2022-11-29T22:41:54.556Z,42.63
2022-11-29T22:44:22.930Z,43.57
2022-11-29T22:46:50.330Z,42.27
2022-11-29T22:49:17.287Z,38.50
2022-11-29T22:51:44.262Z,38.33
2022-11-29T22:54:11.771Z,36.13
2022-11-29T22:56:41.606Z,38.90
2022-11-29T22:59:09.428Z,36.57
2022-11-29T23:01:39.483Z,39.60
2022-11-29T23:04:11.422Z,39.63
2022-11-29T23:06:46.369Z,38.37
2022-11-29T23:09:21.957Z,37.63
2022-11-29T23:11:56.033Z,34.30
2022-11-29T23:14:24.402Z,35.97
2022-11-29T23:16:52.583Z,36.90
2022-11-29T23:19:20.273Z,35.43
2022-11-29T23:21:47.915Z,32.13
2022-11-29T23:24:16.019Z,35.53
2022-11-29T23:26:46.867Z,33.83
2022-11-29T23:29:18.565Z,30.50
2022-11-29T23:31:46.832Z,35.70
2022-11-29T23:34:14.466Z,34.40
2022-11-29T23:36:43.336Z,32.83
2022-11-29T23:39:11.559Z,41.33
2022-11-29T23:41:38.344Z,36.00
2022-11-29T23:44:05.959Z,37.33
2022-11-29T23:46:35.026Z,37.00
2022-11-29T23:49:02.304Z,36.90
2022-11-29T23:51:29.285Z,38.90
2022-11-29T23:53:56.157Z,39.07
2022-11-29T23:56:23.457Z,33.63
2022-11-29T23:58:50.432Z,37.07
